sensor_id;sensor_type;location;lat;lon;timestamp;P1;durP1;ratioP1;P2;durP2;ratioP2
2840;SDS011;53423;49.224;12.074;2023-06-05T00:01:36;2.70;;;2.43;;
2840;SDS011;53423;49.224;12.074;2023-06-05T00:04:05;2.60;;;2.20;;
2840;SDS011;53423;49.224;12.074;2023-06-05T00:06:33;3.23;;;2.47;;
2840;SDS011;53423;49.224;12.074;2023-06-05T00:09:03;3.27;;;2.33;;
2840;SDS011;53423;49.224;12.074;2023-06-05T00:11:31;3.07;;;2.17;;
2840;SDS011;53423;49.224;12.074;2023-06-05T00:14:00;2.93;;;2.17;;
2840;SDS011;53423;49.224;12.074;2023-06-05T00:16:28;2.47;;;2.27;;
2840;SDS011;53423;49.224;12.074;2023-06-05T00:18:56;3.33;;;2.70;;
2840;SDS011;53423;49.224;12.074;2023-06-05T00:21:25;2.70;;;2.33;;
2840;SDS011;53423;49.224;12.074;2023-06-05T00:23:52;3.13;;;2.17;;
2840;SDS011;53423;49.224;12.074;2023-06-05T00:26:21;2.73;;;2.50;;
2840;SDS011;53423;49.224;12.074;2023-06-05T00:28:49;2.80;;;2.27;;
2840;SDS011;53423;49.224;12.074;2023-06-05T00:31:18;2.73;;;2.30;;
2840;SDS011;53423;49.224;12.074;2023-06-05T00:33:48;2.63;;;1.90;;
2840;SDS011;53423;49.224;12.074;2023-06-05T00:36:17;2.67;;;2.47;;
2840;SDS011;53423;49.224;12.074;2023-06-05T00:38:49;2.60;;;2.20;;
2840;SDS011;53423;49.224;12.074;2023-06-05T00:41:17;3.00;;;2.10;;
2840;SDS011;53423;49.224;12.074;2023-06-05T00:43:45;2.23;;;2.07;;
2840;SDS011;53423;49.224;12.074;2023-06-05T00:46:13;2.53;;;2.30;;
2840;SDS011;53423;49.224;12.074;2023-06-05T00:48:44;2.40;;;2.20;;
2840;SDS011;53423;49.224;12.074;2023-06-05T00:51:15;2.30;;;1.90;;
2840;SDS011;53423;49.224;12.074;2023-06-05T00:53:44;3.37;;;2.37;;
2840;SDS011;53423;49.224;12.074;2023-06-05T00:56:14;3.43;;;2.00;;
2840;SDS011;53423;49.224;12.074;2023-06-05T00:58:43;2.43;;;2.23;;
2840;SDS011;53423;49.224;12.074;2023-06-05T01:01:11;2.90;;;2.60;;
2840;SDS011;53423;49.224;12.074;2023-06-05T01:03:41;2.60;;;2.13;;
2840;SDS011;53423;49.224;12.074;2023-06-05T01:06:12;2.57;;;2.37;;
2840;SDS011;53423;49.224;12.074;2023-06-05T01:08:45;2.27;;;2.07;;
2840;SDS011;53423;49.224;12.074;2023-06-05T01:11:16;3.10;;;2.23;;
2840;SDS011;53423;49.224;12.074;2023-06-05T01:13:54;2.60;;;2.40;;
2840;SDS011;53423;49.224;12.074;2023-06-05T01:16:27;2.43;;;2.10;;
2840;SDS011;53423;49.224;12.074;2023-06-05T01:18:58;2.93;;;2.47;;
2840;SDS011;53423;49.224;12.074;2023-06-05T01:21:31;3.13;;;2.20;;
2840;SDS011;53423;49.224;12.074;2023-06-05T01:24:01;2.17;;;1.97;;
2840;SDS011;53423;49.224;12.074;2023-06-05T01:26:30;2.43;;;2.23;;
2840;SDS011;53423;49.224;12.074;2023-06-05T01:29:07;2.40;;;2.20;;
2840;SDS011;53423;49.224;12.074;2023-06-05T01:31:42;2.50;;;2.30;;
2840;SDS011;53423;49.224;12.074;2023-06-05T01:34:13;2.57;;;2.33;;
2840;SDS011;53423;49.224;12.074;2023-06-05T01:36:46;2.93;;;2.53;;
2840;SDS011;53423;49.224;12.074;2023-06-05T01:39:17;3.70;;;2.40;;
2840;SDS011;53423;49.224;12.074;2023-06-05T01:41:45;3.80;;;2.13;;
2840;SDS011;53423;49.224;12.074;2023-06-05T01:44:15;3.23;;;2.40;;
2840;SDS011;53423;49.224;12.074;2023-06-05T01:46:44;3.37;;;2.37;;
2840;SDS011;53423;49.224;12.074;2023-06-05T01:49:13;2.50;;;2.30;;
2840;SDS011;53423;49.224;12.074;2023-06-05T01:51:41;2.93;;;2.50;;
2840;SDS011;53423;49.224;12.074;2023-06-05T01:54:09;2.60;;;2.40;;
2840;SDS011;53423;49.224;12.074;2023-06-05T01:56:38;2.33;;;2.13;;
2840;SDS011;53423;49.224;12.074;2023-06-05T01:59:07;2.30;;;2.10;;
2840;SDS011;53423;49.224;12.074;2023-06-05T02:01:35;2.63;;;2.30;;
2840;SDS011;53423;49.224;12.074;2023-06-05T02:04:03;3.17;;;2.40;;
2840;SDS011;53423;49.224;12.074;2023-06-05T02:06:32;3.13;;;2.33;;
2840;SDS011;53423;49.224;12.074;2023-06-05T02:09:08;2.90;;;2.60;;
2840;SDS011;53423;49.224;12.074;2023-06-05T02:11:37;2.30;;;2.10;;
2840;SDS011;53423;49.224;12.074;2023-06-05T02:14:09;3.00;;;2.70;;
2840;SDS011;53423;49.224;12.074;2023-06-05T02:16:39;2.53;;;1.97;;
2840;SDS011;53423;49.224;12.074;2023-06-05T02:19:08;2.60;;;2.40;;
2840;SDS011;53423;49.224;12.074;2023-06-05T02:21:37;2.30;;;2.00;;
2840;SDS011;53423;49.224;12.074;2023-06-05T02:24:05;3.30;;;2.10;;
2840;SDS011;53423;49.224;12.074;2023-06-05T02:26:34;2.37;;;2.03;;
2840;SDS011;53423;49.224;12.074;2023-06-05T02:29:03;2.00;;;1.80;;
2840;SDS011;53423;49.224;12.074;2023-06-05T02:31:31;2.83;;;2.30;;
2840;SDS011;53423;49.224;12.074;2023-06-05T02:34:00;2.23;;;2.13;;
2840;SDS011;53423;49.224;12.074;2023-06-05T02:36:28;2.30;;;2.10;;
2840;SDS011;53423;49.224;12.074;2023-06-05T02:38:59;2.90;;;2.30;;
2840;SDS011;53423;49.224;12.074;2023-06-05T02:41:28;2.83;;;2.30;;
2840;SDS011;53423;49.224;12.074;2023-06-05T02:43:56;2.57;;;1.90;;
2840;SDS011;53423;49.224;12.074;2023-06-05T02:46:27;3.77;;;2.27;;
2840;SDS011;53423;49.224;12.074;2023-06-05T02:48:55;3.83;;;2.47;;
2840;SDS011;53423;49.224;12.074;2023-06-05T02:51:23;2.57;;;2.37;;
2840;SDS011;53423;49.224;12.074;2023-06-05T02:53:51;2.97;;;2.30;;
2840;SDS011;53423;49.224;12.074;2023-06-05T02:56:19;3.90;;;3.50;;
2840;SDS011;53423;49.224;12.074;2023-06-05T02:58:48;4.43;;;4.00;;
2840;SDS011;53423;49.224;12.074;2023-06-05T03:01:16;4.53;;;3.63;;
2840;SDS011;53423;49.224;12.074;2023-06-05T03:03:46;4.27;;;3.70;;
2840;SDS011;53423;49.224;12.074;2023-06-05T03:06:15;3.10;;;2.67;;
2840;SDS011;53423;49.224;12.074;2023-06-05T03:08:44;4.60;;;2.50;;
2840;SDS011;53423;49.224;12.074;2023-06-05T03:11:12;2.80;;;2.60;;
2840;SDS011;53423;49.224;12.074;2023-06-05T03:13:40;3.77;;;2.70;;
2840;SDS011;53423;49.224;12.074;2023-06-05T03:16:08;2.47;;;2.27;;
2840;SDS011;53423;49.224;12.074;2023-06-05T03:18:37;3.07;;;2.43;;
2840;SDS011;53423;49.224;12.074;2023-06-05T03:21:06;2.70;;;2.30;;
2840;SDS011;53423;49.224;12.074;2023-06-05T03:23:36;2.37;;;2.10;;
2840;SDS011;53423;49.224;12.074;2023-06-05T03:26:04;2.20;;;1.93;;
2840;SDS011;53423;49.224;12.074;2023-06-05T03:28:32;2.40;;;2.20;;
2840;SDS011;53423;49.224;12.074;2023-06-05T03:31:00;3.37;;;2.60;;
2840;SDS011;53423;49.224;12.074;2023-06-05T03:33:28;2.30;;;2.10;;
2840;SDS011;53423;49.224;12.074;2023-06-05T03:35:56;2.60;;;2.40;;
2840;SDS011;53423;49.224;12.074;2023-06-05T03:38:27;3.17;;;2.20;;
2840;SDS011;53423;49.224;12.074;2023-06-05T03:40:55;4.17;;;2.67;;
2840;SDS011;53423;49.224;12.074;2023-06-05T03:43:23;2.90;;;2.50;;
2840;SDS011;53423;49.224;12.074;2023-06-05T03:45:52;3.63;;;2.20;;
2840;SDS011;53423;49.224;12.074;2023-06-05T03:48:19;4.17;;;2.50;;
2840;SDS011;53423;49.224;12.074;2023-06-05T03:50:47;3.07;;;2.13;;
2840;SDS011;53423;49.224;12.074;2023-06-05T03:53:17;5.03;;;2.90;;
2840;SDS011;53423;49.224;12.074;2023-06-05T03:55:47;4.17;;;2.30;;
2840;SDS011;53423;49.224;12.074;2023-06-05T03:58:18;5.47;;;2.80;;
2840;SDS011;53423;49.224;12.074;2023-06-05T04:00:47;3.20;;;2.60;;
2840;SDS011;53423;49.224;12.074;2023-06-05T04:03:16;5.43;;;2.30;;
2840;SDS011;53423;49.224;12.074;2023-06-05T04:05:45;3.63;;;2.37;;
2840;SDS011;53423;49.224;12.074;2023-06-05T04:08:13;8.20;;;2.77;;
2840;SDS011;53423;49.224;12.074;2023-06-05T04:10:41;3.77;;;2.30;;
2840;SDS011;53423;49.224;12.074;2023-06-05T04:13:10;6.03;;;2.50;;
2840;SDS011;53423;49.224;12.074;2023-06-05T04:15:38;2.60;;;2.40;;
2840;SDS011;53423;49.224;12.074;2023-06-05T04:18:06;4.03;;;2.67;;
2840;SDS011;53423;49.224;12.074;2023-06-05T04:20:34;3.37;;;2.67;;
2840;SDS011;53423;49.224;12.074;2023-06-05T04:23:02;2.80;;;2.53;;
2840;SDS011;53423;49.224;12.074;2023-06-05T04:25:30;3.80;;;2.50;;
2840;SDS011;53423;49.224;12.074;2023-06-05T04:27:58;5.50;;;2.67;;
2840;SDS011;53423;49.224;12.074;2023-06-05T04:30:28;4.40;;;2.60;;
2840;SDS011;53423;49.224;12.074;2023-06-05T04:32:56;3.30;;;2.60;;
2840;SDS011;53423;49.224;12.074;2023-06-05T04:35:24;5.13;;;2.53;;
2840;SDS011;53423;49.224;12.074;2023-06-05T04:37:53;8.33;;;2.90;;
2840;SDS011;53423;49.224;12.074;2023-06-05T04:40:23;13.67;;;3.67;;
2840;SDS011;53423;49.224;12.074;2023-06-05T04:42:51;3.27;;;2.40;;
2840;SDS011;53423;49.224;12.074;2023-06-05T04:45:20;3.33;;;2.33;;
2840;SDS011;53423;49.224;12.074;2023-06-05T04:47:50;7.37;;;2.57;;
2840;SDS011;53423;49.224;12.074;2023-06-05T04:50:21;4.30;;;2.63;;
2840;SDS011;53423;49.224;12.074;2023-06-05T04:52:51;4.80;;;2.93;;
2840;SDS011;53423;49.224;12.074;2023-06-05T04:55:21;3.73;;;2.33;;
2840;SDS011;53423;49.224;12.074;2023-06-05T04:57:49;3.63;;;3.17;;
2840;SDS011;53423;49.224;12.074;2023-06-05T05:00:17;3.00;;;2.60;;
2840;SDS011;53423;49.224;12.074;2023-06-05T05:02:45;4.57;;;2.80;;
2840;SDS011;53423;49.224;12.074;2023-06-05T05:05:15;3.13;;;2.83;;
2840;SDS011;53423;49.224;12.074;2023-06-05T05:07:43;3.20;;;2.90;;
2840;SDS011;53423;49.224;12.074;2023-06-05T05:10:11;2.83;;;2.63;;
2840;SDS011;53423;49.224;12.074;2023-06-05T05:12:39;5.07;;;2.70;;
2840;SDS011;53423;49.224;12.074;2023-06-05T05:15:08;3.23;;;2.93;;
2840;SDS011;53423;49.224;12.074;2023-06-05T05:17:36;4.33;;;3.00;;
2840;SDS011;53423;49.224;12.074;2023-06-05T05:20:04;2.50;;;2.33;;
2840;SDS011;53423;49.224;12.074;2023-06-05T05:22:35;3.50;;;2.83;;
2840;SDS011;53423;49.224;12.074;2023-06-05T05:25:04;4.53;;;3.13;;
2840;SDS011;53423;49.224;12.074;2023-06-05T05:27:32;5.37;;;2.93;;
2840;SDS011;53423;49.224;12.074;2023-06-05T05:30:00;4.63;;;3.10;;
2840;SDS011;53423;49.224;12.074;2023-06-05T05:32:28;3.37;;;2.80;;
2840;SDS011;53423;49.224;12.074;2023-06-05T05:34:57;3.10;;;2.80;;
2840;SDS011;53423;49.224;12.074;2023-06-05T05:37:24;3.50;;;2.97;;
2840;SDS011;53423;49.224;12.074;2023-06-05T05:39:54;3.83;;;2.97;;
2840;SDS011;53423;49.224;12.074;2023-06-05T05:42:22;3.40;;;2.93;;
2840;SDS011;53423;49.224;12.074;2023-06-05T05:44:50;4.10;;;3.20;;
2840;SDS011;53423;49.224;12.074;2023-06-05T05:47:17;5.20;;;3.17;;
2840;SDS011;53423;49.224;12.074;2023-06-05T05:49:45;5.47;;;3.30;;
2840;SDS011;53423;49.224;12.074;2023-06-05T05:52:13;4.03;;;3.30;;
2840;SDS011;53423;49.224;12.074;2023-06-05T05:54:42;3.30;;;3.00;;
2840;SDS011;53423;49.224;12.074;2023-06-05T05:57:11;3.77;;;3.40;;
2840;SDS011;53423;49.224;12.074;2023-06-05T05:59:39;3.37;;;3.00;;
2840;SDS011;53423;49.224;12.074;2023-06-05T06:02:08;4.37;;;3.13;;
2840;SDS011;53423;49.224;12.074;2023-06-05T06:04:38;4.57;;;3.33;;
2840;SDS011;53423;49.224;12.074;2023-06-05T06:07:06;4.53;;;3.03;;
2840;SDS011;53423;49.224;12.074;2023-06-05T06:09:34;6.53;;;3.73;;
2840;SDS011;53423;49.224;12.074;2023-06-05T06:12:02;3.50;;;3.20;;
2840;SDS011;53423;49.224;12.074;2023-06-05T06:14:33;3.57;;;3.17;;
2840;SDS011;53423;49.224;12.074;2023-06-05T06:17:02;5.77;;;3.50;;
2840;SDS011;53423;49.224;12.074;2023-06-05T06:19:32;3.30;;;3.00;;
2840;SDS011;53423;49.224;12.074;2023-06-05T06:22:00;4.53;;;3.10;;
2840;SDS011;53423;49.224;12.074;2023-06-05T06:24:28;3.57;;;3.23;;
2840;SDS011;53423;49.224;12.074;2023-06-05T06:26:56;6.37;;;2.97;;
2840;SDS011;53423;49.224;12.074;2023-06-05T06:29:24;3.87;;;3.50;;
2840;SDS011;53423;49.224;12.074;2023-06-05T06:31:55;4.83;;;3.50;;
2840;SDS011;53423;49.224;12.074;2023-06-05T06:34:23;3.90;;;3.20;;
2840;SDS011;53423;49.224;12.074;2023-06-05T06:36:52;3.80;;;3.50;;
2840;SDS011;53423;49.224;12.074;2023-06-05T06:39:20;4.00;;;3.20;;
2840;SDS011;53423;49.224;12.074;2023-06-05T06:41:50;3.50;;;3.20;;
2840;SDS011;53423;49.224;12.074;2023-06-05T06:44:20;7.00;;;3.63;;
2840;SDS011;53423;49.224;12.074;2023-06-05T06:46:47;5.33;;;3.43;;
2840;SDS011;53423;49.224;12.074;2023-06-05T06:49:17;4.30;;;3.50;;
2840;SDS011;53423;49.224;12.074;2023-06-05T06:51:45;5.17;;;3.63;;
2840;SDS011;53423;49.224;12.074;2023-06-05T06:54:13;4.73;;;3.43;;
2840;SDS011;53423;49.224;12.074;2023-06-05T06:56:41;5.00;;;3.80;;
2840;SDS011;53423;49.224;12.074;2023-06-05T06:59:12;8.07;;;4.27;;
2840;SDS011;53423;49.224;12.074;2023-06-05T07:01:42;4.33;;;3.80;;
2840;SDS011;53423;49.224;12.074;2023-06-05T07:04:12;7.80;;;4.17;;
2840;SDS011;53423;49.224;12.074;2023-06-05T07:06:44;7.80;;;4.50;;
2840;SDS011;53423;49.224;12.074;2023-06-05T07:09:12;4.60;;;4.20;;
2840;SDS011;53423;49.224;12.074;2023-06-05T07:11:40;5.53;;;4.20;;
2840;SDS011;53423;49.224;12.074;2023-06-05T07:14:08;5.13;;;4.23;;
2840;SDS011;53423;49.224;12.074;2023-06-05T07:16:36;6.83;;;4.20;;
2840;SDS011;53423;49.224;12.074;2023-06-05T07:19:05;4.40;;;4.00;;
2840;SDS011;53423;49.224;12.074;2023-06-05T07:21:33;5.33;;;4.30;;
2840;SDS011;53423;49.224;12.074;2023-06-05T07:24:05;5.00;;;4.00;;
2840;SDS011;53423;49.224;12.074;2023-06-05T07:26:34;4.10;;;3.80;;
2840;SDS011;53423;49.224;12.074;2023-06-05T07:29:02;4.87;;;4.10;;
2840;SDS011;53423;49.224;12.074;2023-06-05T07:31:30;4.37;;;3.80;;
2840;SDS011;53423;49.224;12.074;2023-06-05T07:33:58;4.63;;;4.23;;
2840;SDS011;53423;49.224;12.074;2023-06-05T07:36:26;5.27;;;4.20;;
2840;SDS011;53423;49.224;12.074;2023-06-05T07:38:54;4.47;;;4.00;;
2840;SDS011;53423;49.224;12.074;2023-06-05T07:41:24;3.93;;;3.60;;
2840;SDS011;53423;49.224;12.074;2023-06-05T07:43:52;4.63;;;3.50;;
2840;SDS011;53423;49.224;12.074;2023-06-05T07:46:20;8.70;;;3.78;;
2840;SDS011;53423;49.224;12.074;2023-06-05T07:48:48;3.50;;;3.20;;
2840;SDS011;53423;49.224;12.074;2023-06-05T07:51:16;3.97;;;3.43;;
2840;SDS011;53423;49.224;12.074;2023-06-05T07:53:44;5.38;;;3.85;;
2840;SDS011;53423;49.224;12.074;2023-06-05T07:56:12;4.93;;;3.47;;
2840;SDS011;53423;49.224;12.074;2023-06-05T07:58:44;3.67;;;3.47;;
2840;SDS011;53423;49.224;12.074;2023-06-05T08:01:12;3.83;;;3.45;;
2840;SDS011;53423;49.224;12.074;2023-06-05T08:03:42;3.92;;;3.20;;
2840;SDS011;53423;49.224;12.074;2023-06-05T08:06:10;3.60;;;3.30;;
2840;SDS011;53423;49.224;12.074;2023-06-05T08:08:38;4.28;;;3.45;;
2840;SDS011;53423;49.224;12.074;2023-06-05T08:11:06;3.67;;;3.33;;
2840;SDS011;53423;49.224;12.074;2023-06-05T08:13:36;3.80;;;3.50;;
2840;SDS011;53423;49.224;12.074;2023-06-05T08:16:08;3.67;;;3.38;;
2840;SDS011;53423;49.224;12.074;2023-06-05T08:18:36;3.75;;;3.42;;
2840;SDS011;53423;49.224;12.074;2023-06-05T08:21:04;3.60;;;3.30;;
2840;SDS011;53423;49.224;12.074;2023-06-05T08:23:33;3.75;;;3.42;;
2840;SDS011;53423;49.224;12.074;2023-06-05T08:26:01;3.65;;;3.35;;
2840;SDS011;53423;49.224;12.074;2023-06-05T08:28:37;3.63;;;3.33;;
2840;SDS011;53423;49.224;12.074;2023-06-05T08:31:06;3.17;;;2.97;;
2840;SDS011;53423;49.224;12.074;2023-06-05T08:33:37;3.35;;;3.05;;
2840;SDS011;53423;49.224;12.074;2023-06-05T08:36:05;3.38;;;3.15;;
2840;SDS011;53423;49.224;12.074;2023-06-05T08:38:33;5.70;;;3.83;;
2840;SDS011;53423;49.224;12.074;2023-06-05T08:41:04;3.80;;;3.50;;
2840;SDS011;53423;49.224;12.074;2023-06-05T08:43:35;3.85;;;3.47;;
2840;SDS011;53423;49.224;12.074;2023-06-05T08:46:04;3.80;;;3.50;;
2840;SDS011;53423;49.224;12.074;2023-06-05T08:48:34;3.63;;;3.33;;
2840;SDS011;53423;49.224;12.074;2023-06-05T08:51:13;4.25;;;3.85;;
2840;SDS011;53423;49.224;12.074;2023-06-05T08:53:43;3.67;;;3.30;;
2840;SDS011;53423;49.224;12.074;2023-06-05T08:56:18;3.90;;;3.50;;
2840;SDS011;53423;49.224;12.074;2023-06-05T08:58:48;4.05;;;3.38;;
2840;SDS011;53423;49.224;12.074;2023-06-05T09:01:17;3.80;;;3.50;;
2840;SDS011;53423;49.224;12.074;2023-06-05T09:03:46;3.95;;;3.65;;
2840;SDS011;53423;49.224;12.074;2023-06-05T09:06:14;3.58;;;3.10;;
2840;SDS011;53423;49.224;12.074;2023-06-05T09:08:42;3.70;;;3.40;;
2840;SDS011;53423;49.224;12.074;2023-06-05T09:11:23;4.22;;;3.28;;
2840;SDS011;53423;49.224;12.074;2023-06-05T09:13:54;3.40;;;3.10;;
2840;SDS011;53423;49.224;12.074;2023-06-05T09:16:31;4.10;;;3.53;;
2840;SDS011;53423;49.224;12.074;2023-06-05T09:19:02;6.40;;;3.85;;
2840;SDS011;53423;49.224;12.074;2023-06-05T09:21:30;3.60;;;3.30;;
2840;SDS011;53423;49.224;12.074;2023-06-05T09:24:10;3.58;;;3.28;;
2840;SDS011;53423;49.224;12.074;2023-06-05T09:26:47;4.13;;;3.35;;
2840;SDS011;53423;49.224;12.074;2023-06-05T09:29:21;4.10;;;3.67;;
2840;SDS011;53423;49.224;12.074;2023-06-05T09:31:50;3.88;;;3.22;;
2840;SDS011;53423;49.224;12.074;2023-06-05T09:34:21;4.22;;;3.35;;
2840;SDS011;53423;49.224;12.074;2023-06-05T09:36:50;3.25;;;3.03;;
2840;SDS011;53423;49.224;12.074;2023-06-05T09:39:19;3.53;;;3.05;;
2840;SDS011;53423;49.224;12.074;2023-06-05T09:41:48;3.60;;;3.30;;
2840;SDS011;53423;49.224;12.074;2023-06-05T09:44:17;3.72;;;2.95;;
2840;SDS011;53423;49.224;12.074;2023-06-05T09:46:53;3.45;;;3.20;;
2840;SDS011;53423;49.224;12.074;2023-06-05T09:49:25;4.28;;;3.65;;
2840;SDS011;53423;49.224;12.074;2023-06-05T09:51:55;3.42;;;3.13;;
2840;SDS011;53423;49.224;12.074;2023-06-05T09:54:25;4.35;;;3.45;;
2840;SDS011;53423;49.224;12.074;2023-06-05T09:56:56;5.22;;;3.75;;
2840;SDS011;53423;49.224;12.074;2023-06-05T09:59:26;3.60;;;3.20;;
2840;SDS011;53423;49.224;12.074;2023-06-05T10:01:56;3.03;;;2.78;;
2840;SDS011;53423;49.224;12.074;2023-06-05T10:04:28;2.97;;;2.78;;
2840;SDS011;53423;49.224;12.074;2023-06-05T10:06:58;3.10;;;2.90;;
2840;SDS011;53423;49.224;12.074;2023-06-05T10:09:29;3.38;;;3.08;;
2840;SDS011;53423;49.224;12.074;2023-06-05T10:11:59;3.63;;;3.13;;
2840;SDS011;53423;49.224;12.074;2023-06-05T10:14:27;3.22;;;2.92;;
2840;SDS011;53423;49.224;12.074;2023-06-05T10:16:55;3.50;;;3.20;;
2840;SDS011;53423;49.224;12.074;2023-06-05T10:19:26;3.53;;;3.22;;
2840;SDS011;53423;49.224;12.074;2023-06-05T10:21:55;2.92;;;2.72;;
2840;SDS011;53423;49.224;12.074;2023-06-05T10:24:24;3.45;;;3.15;;
2840;SDS011;53423;49.224;12.074;2023-06-05T10:27:10;3.85;;;3.00;;
2840;SDS011;53423;49.224;12.074;2023-06-05T10:33:16;3.47;;;3.13;;
2840;SDS011;53423;49.224;12.074;2023-06-05T10:35:56;3.47;;;3.17;;
2840;SDS011;53423;49.224;12.074;2023-06-05T10:38:31;3.72;;;3.40;;
2840;SDS011;53423;49.224;12.074;2023-06-05T10:41:03;3.80;;;3.50;;
2840;SDS011;53423;49.224;12.074;2023-06-05T10:43:32;3.20;;;3.00;;
2840;SDS011;53423;49.224;12.074;2023-06-05T10:46:02;4.53;;;3.13;;
2840;SDS011;53423;49.224;12.074;2023-06-05T10:49:05;3.45;;;3.10;;
2840;SDS011;53423;49.224;12.074;2023-06-05T10:51:37;3.35;;;3.05;;
2840;SDS011;53423;49.224;12.074;2023-06-05T10:54:09;4.38;;;2.97;;
2840;SDS011;53423;49.224;12.074;2023-06-05T10:56:55;3.60;;;3.30;;
2840;SDS011;53423;49.224;12.074;2023-06-05T10:59:25;3.03;;;2.83;;
2840;SDS011;53423;49.224;12.074;2023-06-05T11:05:06;3.55;;;3.25;;
2840;SDS011;53423;49.224;12.074;2023-06-05T11:07:42;5.53;;;3.65;;
2840;SDS011;53423;49.224;12.074;2023-06-05T11:10:13;4.10;;;3.50;;
2840;SDS011;53423;49.224;12.074;2023-06-05T11:12:54;3.30;;;3.10;;
2840;SDS011;53423;49.224;12.074;2023-06-05T11:15:36;3.63;;;3.33;;
2840;SDS011;53423;49.224;12.074;2023-06-05T11:21:00;3.45;;;3.15;;
2840;SDS011;53423;49.224;12.074;2023-06-05T11:23:30;3.60;;;3.33;;
2840;SDS011;53423;49.224;12.074;2023-06-05T11:29:11;4.80;;;3.90;;
2840;SDS011;53423;49.224;12.074;2023-06-05T11:31:42;4.97;;;3.53;;
2840;SDS011;53423;49.224;12.074;2023-06-05T11:34:11;3.80;;;3.30;;
2840;SDS011;53423;49.224;12.074;2023-06-05T11:36:40;3.92;;;3.53;;
2840;SDS011;53423;49.224;12.074;2023-06-05T11:39:10;3.33;;;3.13;;
2840;SDS011;53423;49.224;12.074;2023-06-05T11:41:43;3.78;;;3.40;;
2840;SDS011;53423;49.224;12.074;2023-06-05T11:44:12;3.90;;;3.60;;
2840;SDS011;53423;49.224;12.074;2023-06-05T11:46:40;3.92;;;3.50;;
2840;SDS011;53423;49.224;12.074;2023-06-05T11:49:22;4.72;;;3.30;;
2840;SDS011;53423;49.224;12.074;2023-06-05T11:51:52;3.20;;;3.00;;
2840;SDS011;53423;49.224;12.074;2023-06-05T11:54:26;3.63;;;3.33;;
2840;SDS011;53423;49.224;12.074;2023-06-05T11:56:58;3.60;;;3.33;;
2840;SDS011;53423;49.224;12.074;2023-06-05T11:59:31;3.50;;;3.15;;
2840;SDS011;53423;49.224;12.074;2023-06-05T12:01:59;3.47;;;3.17;;
2840;SDS011;53423;49.224;12.074;2023-06-05T12:04:29;3.30;;;3.08;;
2840;SDS011;53423;49.224;12.074;2023-06-05T12:06:58;4.78;;;3.72;;
2840;SDS011;53423;49.224;12.074;2023-06-05T12:09:30;4.47;;;4.07;;
2840;SDS011;53423;49.224;12.074;2023-06-05T12:12:04;5.15;;;3.90;;
2840;SDS011;53423;49.224;12.074;2023-06-05T12:14:34;3.08;;;2.88;;
2840;SDS011;53423;49.224;12.074;2023-06-05T12:17:08;4.32;;;3.47;;
2840;SDS011;53423;49.224;12.074;2023-06-05T12:19:37;3.78;;;3.47;;
2840;SDS011;53423;49.224;12.074;2023-06-05T12:22:07;3.50;;;3.20;;
2840;SDS011;53423;49.224;12.074;2023-06-05T12:24:38;3.75;;;3.08;;
2840;SDS011;53423;49.224;12.074;2023-06-05T12:27:06;3.88;;;3.15;;
2840;SDS011;53423;49.224;12.074;2023-06-05T12:29:35;3.72;;;3.42;;
2840;SDS011;53423;49.224;12.074;2023-06-05T12:32:19;3.60;;;3.30;;
2840;SDS011;53423;49.224;12.074;2023-06-05T12:34:49;5.30;;;3.15;;
2840;SDS011;53423;49.224;12.074;2023-06-05T12:37:21;3.63;;;3.33;;
2840;SDS011;53423;49.224;12.074;2023-06-05T12:39:53;3.60;;;3.17;;
2840;SDS011;53423;49.224;12.074;2023-06-05T12:42:21;3.90;;;3.42;;
2840;SDS011;53423;49.224;12.074;2023-06-05T12:44:49;3.47;;;3.15;;
2840;SDS011;53423;49.224;12.074;2023-06-05T12:47:17;3.97;;;3.67;;
2840;SDS011;53423;49.224;12.074;2023-06-05T12:49:45;3.45;;;3.15;;
2840;SDS011;53423;49.224;12.074;2023-06-05T12:52:13;4.20;;;3.20;;
2840;SDS011;53423;49.224;12.074;2023-06-05T12:54:54;4.03;;;3.72;;
2840;SDS011;53423;49.224;12.074;2023-06-05T12:57:23;3.47;;;3.15;;
2840;SDS011;53423;49.224;12.074;2023-06-05T12:59:53;3.75;;;3.45;;
2840;SDS011;53423;49.224;12.074;2023-06-05T13:02:22;4.25;;;3.38;;
2840;SDS011;53423;49.224;12.074;2023-06-05T13:04:51;5.55;;;3.45;;
2840;SDS011;53423;49.224;12.074;2023-06-05T13:07:20;3.92;;;3.58;;
2840;SDS011;53423;49.224;12.074;2023-06-05T13:09:48;4.97;;;3.90;;
2840;SDS011;53423;49.224;12.074;2023-06-05T13:12:20;3.90;;;3.50;;
2840;SDS011;53423;49.224;12.074;2023-06-05T13:14:48;3.92;;;3.63;;
2840;SDS011;53423;49.224;12.074;2023-06-05T13:17:18;3.95;;;3.58;;
2840;SDS011;53423;49.224;12.074;2023-06-05T13:19:46;4.13;;;3.70;;
2840;SDS011;53423;49.224;12.074;2023-06-05T13:22:14;3.92;;;3.60;;
2840;SDS011;53423;49.224;12.074;2023-06-05T13:24:46;5.13;;;3.65;;
2840;SDS011;53423;49.224;12.074;2023-06-05T13:27:15;5.80;;;3.42;;
2840;SDS011;53423;49.224;12.074;2023-06-05T13:29:46;4.15;;;3.75;;
2840;SDS011;53423;49.224;12.074;2023-06-05T13:32:14;3.50;;;3.30;;
2840;SDS011;53423;49.224;12.074;2023-06-05T13:34:42;3.97;;;3.60;;
2840;SDS011;53423;49.224;12.074;2023-06-05T13:37:10;5.07;;;3.53;;
2840;SDS011;53423;49.224;12.074;2023-06-05T13:39:40;3.80;;;3.40;;
2840;SDS011;53423;49.224;12.074;2023-06-05T13:42:08;5.25;;;3.53;;
2840;SDS011;53423;49.224;12.074;2023-06-05T13:44:38;5.47;;;3.90;;
2840;SDS011;53423;49.224;12.074;2023-06-05T13:47:07;3.50;;;3.15;;
2840;SDS011;53423;49.224;12.074;2023-06-05T13:49:36;3.60;;;3.30;;
2840;SDS011;53423;49.224;12.074;2023-06-05T13:52:04;4.05;;;3.00;;
2840;SDS011;53423;49.224;12.074;2023-06-05T13:54:32;3.45;;;3.15;;
2840;SDS011;53423;49.224;12.074;2023-06-05T13:57:00;3.40;;;3.10;;
2840;SDS011;53423;49.224;12.074;2023-06-05T13:59:29;3.08;;;2.88;;
2840;SDS011;53423;49.224;12.074;2023-06-05T14:01:57;3.00;;;2.80;;
2840;SDS011;53423;49.224;12.074;2023-06-05T14:04:26;2.63;;;2.43;;
2840;SDS011;53423;49.224;12.074;2023-06-05T14:06:55;2.50;;;2.30;;
2840;SDS011;53423;49.224;12.074;2023-06-05T14:09:25;1.63;;;1.53;;
2840;SDS011;53423;49.224;12.074;2023-06-05T14:11:54;3.20;;;2.27;;
2840;SDS011;53423;49.224;12.074;2023-06-05T14:14:22;2.40;;;1.90;;
2840;SDS011;53423;49.224;12.074;2023-06-05T14:16:50;2.30;;;2.10;;
2840;SDS011;53423;49.224;12.074;2023-06-05T14:19:18;3.40;;;2.30;;
2840;SDS011;53423;49.224;12.074;2023-06-05T14:21:47;3.00;;;2.80;;
2840;SDS011;53423;49.224;12.074;2023-06-05T14:24:16;3.27;;;2.30;;
2840;SDS011;53423;49.224;12.074;2023-06-05T14:26:46;2.97;;;2.77;;
2840;SDS011;53423;49.224;12.074;2023-06-05T14:29:14;3.50;;;3.20;;
2840;SDS011;53423;49.224;12.074;2023-06-05T14:31:42;3.63;;;3.33;;
2840;SDS011;53423;49.224;12.074;2023-06-05T14:34:10;4.70;;;3.63;;
2840;SDS011;53423;49.224;12.074;2023-06-05T14:36:38;3.90;;;3.60;;
2840;SDS011;53423;49.224;12.074;2023-06-05T14:39:07;3.83;;;3.53;;
2840;SDS011;53423;49.224;12.074;2023-06-05T14:41:36;4.27;;;3.80;;
2840;SDS011;53423;49.224;12.074;2023-06-05T14:44:04;3.70;;;3.40;;
2840;SDS011;53423;49.224;12.074;2023-06-05T14:46:48;4.27;;;3.83;;
2840;SDS011;53423;49.224;12.074;2023-06-05T14:49:16;3.40;;;3.20;;
2840;SDS011;53423;49.224;12.074;2023-06-05T14:51:44;3.50;;;3.20;;
2840;SDS011;53423;49.224;12.074;2023-06-05T14:54:14;4.60;;;3.30;;
2840;SDS011;53423;49.224;12.074;2023-06-05T14:56:42;3.47;;;3.27;;
2840;SDS011;53423;49.224;12.074;2023-06-05T14:59:10;3.73;;;3.43;;
2840;SDS011;53423;49.224;12.074;2023-06-05T15:01:51;3.53;;;2.80;;
2840;SDS011;53423;49.224;12.074;2023-06-05T15:04:20;3.67;;;2.70;;
2840;SDS011;53423;49.224;12.074;2023-06-05T15:06:48;3.43;;;2.20;;
2840;SDS011;53423;49.224;12.074;2023-06-05T15:09:19;2.60;;;2.40;;
2840;SDS011;53423;49.224;12.074;2023-06-05T15:11:47;2.60;;;2.20;;
2840;SDS011;53423;49.224;12.074;2023-06-05T15:14:16;2.33;;;2.23;;
2840;SDS011;53423;49.224;12.074;2023-06-05T15:16:44;3.03;;;2.83;;